sensor_id;sensor_type;location;lat;lon;timestamp;P1;durP1;ratioP1;P2;durP2;ratioP2
12312;SDS011;6220;53.580;9.758;2023-04-25T00:00:02;14.50;;;4.60;;
12312;SDS011;6220;53.580;9.758;2023-04-25T00:02:32;14.17;;;4.53;;
12312;SDS011;6220;53.580;9.758;2023-04-25T00:05:00;12.97;;;4.83;;
12312;SDS011;6220;53.580;9.758;2023-04-25T00:07:27;9.30;;;4.57;;
12312;SDS011;6220;53.580;9.758;2023-04-25T00:09:52;10.03;;;4.67;;
12312;SDS011;6220;53.580;9.758;2023-04-25T00:12:17;13.50;;;5.10;;
12312;SDS011;6220;53.580;9.758;2023-04-25T00:14:43;22.63;;;5.27;;
12312;SDS011;6220;53.580;9.758;2023-04-25T00:17:10;14.07;;;5.10;;
12312;SDS011;6220;53.580;9.758;2023-04-25T00:19:36;17.13;;;4.77;;
12312;SDS011;6220;53.580;9.758;2023-04-25T00:22:03;16.87;;;5.20;;
12312;SDS011;6220;53.580;9.758;2023-04-25T00:24:28;19.70;;;5.43;;
12312;SDS011;6220;53.580;9.758;2023-04-25T00:26:54;18.07;;;5.03;;
12312;SDS011;6220;53.580;9.758;2023-04-25T00:29:19;18.87;;;5.20;;
12312;SDS011;6220;53.580;9.758;2023-04-25T00:31:44;16.30;;;4.83;;
12312;SDS011;6220;53.580;9.758;2023-04-25T00:34:10;23.47;;;5.77;;
12312;SDS011;6220;53.580;9.758;2023-04-25T00:36:35;24.03;;;4.90;;
12312;SDS011;6220;53.580;9.758;2023-04-25T00:39:01;17.47;;;5.33;;
12312;SDS011;6220;53.580;9.758;2023-04-25T00:41:26;18.70;;;5.00;;
12312;SDS011;6220;53.580;9.758;2023-04-25T00:43:52;15.60;;;4.70;;
12312;SDS011;6220;53.580;9.758;2023-04-25T00:46:19;25.47;;;6.07;;
12312;SDS011;6220;53.580;9.758;2023-04-25T00:48:44;17.13;;;4.70;;
12312;SDS011;6220;53.580;9.758;2023-04-25T00:51:10;22.97;;;6.00;;
12312;SDS011;6220;53.580;9.758;2023-04-25T00:53:39;22.30;;;5.43;;
12312;SDS011;6220;53.580;9.758;2023-04-25T00:56:05;21.17;;;5.23;;
12312;SDS011;6220;53.580;9.758;2023-04-25T00:58:31;23.63;;;6.63;;
12312;SDS011;6220;53.580;9.758;2023-04-25T01:00:57;20.10;;;6.37;;
12312;SDS011;6220;53.580;9.758;2023-04-25T01:03:23;17.67;;;5.87;;
12312;SDS011;6220;53.580;9.758;2023-04-25T01:05:53;24.50;;;5.63;;
12312;SDS011;6220;53.580;9.758;2023-04-25T01:08:19;23.07;;;5.87;;
12312;SDS011;6220;53.580;9.758;2023-04-25T01:10:46;22.80;;;5.70;;
12312;SDS011;6220;53.580;9.758;2023-04-25T01:13:12;19.97;;;5.60;;
12312;SDS011;6220;53.580;9.758;2023-04-25T01:15:37;13.53;;;5.17;;
12312;SDS011;6220;53.580;9.758;2023-04-25T01:18:05;23.10;;;5.43;;
12312;SDS011;6220;53.580;9.758;2023-04-25T01:20:33;19.97;;;5.60;;
12312;SDS011;6220;53.580;9.758;2023-04-25T01:22:58;20.90;;;5.23;;
12312;SDS011;6220;53.580;9.758;2023-04-25T01:25:24;22.47;;;5.73;;
12312;SDS011;6220;53.580;9.758;2023-04-25T01:27:50;23.83;;;5.90;;
12312;SDS011;6220;53.580;9.758;2023-04-25T01:30:15;18.13;;;6.10;;
12312;SDS011;6220;53.580;9.758;2023-04-25T01:32:41;20.97;;;6.30;;
12312;SDS011;6220;53.580;9.758;2023-04-25T01:35:08;22.77;;;5.80;;
12312;SDS011;6220;53.580;9.758;2023-04-25T01:37:43;20.17;;;5.50;;
12312;SDS011;6220;53.580;9.758;2023-04-25T01:40:10;20.57;;;6.70;;
12312;SDS011;6220;53.580;9.758;2023-04-25T01:42:37;23.40;;;6.23;;
12312;SDS011;6220;53.580;9.758;2023-04-25T01:45:04;19.97;;;5.60;;
12312;SDS011;6220;53.580;9.758;2023-04-25T01:47:30;19.70;;;6.27;;
12312;SDS011;6220;53.580;9.758;2023-04-25T01:49:56;20.93;;;5.70;;
12312;SDS011;6220;53.580;9.758;2023-04-25T01:52:21;23.17;;;5.80;;
12312;SDS011;6220;53.580;9.758;2023-04-25T01:54:53;21.20;;;6.63;;
12312;SDS011;6220;53.580;9.758;2023-04-25T01:57:18;19.10;;;5.03;;
12312;SDS011;6220;53.580;9.758;2023-04-25T01:59:44;22.50;;;5.40;;
12312;SDS011;6220;53.580;9.758;2023-04-25T02:02:10;19.00;;;4.77;;
12312;SDS011;6220;53.580;9.758;2023-04-25T02:04:36;23.27;;;6.03;;
12312;SDS011;6220;53.580;9.758;2023-04-25T02:07:01;20.83;;;5.73;;
12312;SDS011;6220;53.580;9.758;2023-04-25T02:09:27;23.87;;;5.33;;
12312;SDS011;6220;53.580;9.758;2023-04-25T02:11:52;19.30;;;5.23;;
12312;SDS011;6220;53.580;9.758;2023-04-25T02:14:18;25.03;;;5.87;;
12312;SDS011;6220;53.580;9.758;2023-04-25T02:16:43;22.17;;;5.33;;
12312;SDS011;6220;53.580;9.758;2023-04-25T02:19:11;20.27;;;5.40;;
12312;SDS011;6220;53.580;9.758;2023-04-25T02:21:37;18.17;;;4.80;;
12312;SDS011;6220;53.580;9.758;2023-04-25T02:24:02;21.87;;;5.13;;
12312;SDS011;6220;53.580;9.758;2023-04-25T02:26:28;23.43;;;5.80;;
12312;SDS011;6220;53.580;9.758;2023-04-25T02:28:54;14.50;;;4.53;;
12312;SDS011;6220;53.580;9.758;2023-04-25T02:31:20;19.57;;;5.33;;
12312;SDS011;6220;53.580;9.758;2023-04-25T02:33:47;17.67;;;4.87;;
12312;SDS011;6220;53.580;9.758;2023-04-25T02:36:12;25.97;;;6.00;;
12312;SDS011;6220;53.580;9.758;2023-04-25T02:38:38;25.83;;;5.00;;
12312;SDS011;6220;53.580;9.758;2023-04-25T02:41:03;19.47;;;5.27;;
12312;SDS011;6220;53.580;9.758;2023-04-25T02:43:29;18.80;;;5.03;;
12312;SDS011;6220;53.580;9.758;2023-04-25T02:45:54;24.23;;;5.00;;
12312;SDS011;6220;53.580;9.758;2023-04-25T02:48:20;14.10;;;4.93;;
12312;SDS011;6220;53.580;9.758;2023-04-25T02:50:45;20.63;;;4.70;;
12312;SDS011;6220;53.580;9.758;2023-04-25T02:53:10;17.67;;;5.23;;
12312;SDS011;6220;53.580;9.758;2023-04-25T02:55:36;23.33;;;4.80;;
12312;SDS011;6220;53.580;9.758;2023-04-25T02:58:01;18.23;;;5.97;;
12312;SDS011;6220;53.580;9.758;2023-04-25T03:00:27;22.53;;;5.50;;
12312;SDS011;6220;53.580;9.758;2023-04-25T03:02:52;20.87;;;5.63;;
12312;SDS011;6220;53.580;9.758;2023-04-25T03:05:18;22.50;;;4.67;;
12312;SDS011;6220;53.580;9.758;2023-04-25T03:07:43;14.40;;;5.00;;
12312;SDS011;6220;53.580;9.758;2023-04-25T03:10:09;18.73;;;5.10;;
12312;SDS011;6220;53.580;9.758;2023-04-25T03:12:35;23.03;;;5.20;;
12312;SDS011;6220;53.580;9.758;2023-04-25T03:15:01;19.60;;;4.93;;
12312;SDS011;6220;53.580;9.758;2023-04-25T03:17:26;22.13;;;5.60;;
12312;SDS011;6220;53.580;9.758;2023-04-25T03:19:51;21.40;;;5.53;;
12312;SDS011;6220;53.580;9.758;2023-04-25T03:22:17;21.87;;;4.43;;
12312;SDS011;6220;53.580;9.758;2023-04-25T03:24:43;15.50;;;4.27;;
12312;SDS011;6220;53.580;9.758;2023-04-25T03:27:08;21.30;;;5.03;;
12312;SDS011;6220;53.580;9.758;2023-04-25T03:29:33;16.60;;;4.30;;
12312;SDS011;6220;53.580;9.758;2023-04-25T03:31:59;24.27;;;4.57;;
12312;SDS011;6220;53.580;9.758;2023-04-25T03:34:24;22.40;;;4.80;;
12312;SDS011;6220;53.580;9.758;2023-04-25T03:36:50;14.33;;;4.07;;
12312;SDS011;6220;53.580;9.758;2023-04-25T03:39:16;12.90;;;3.90;;
12312;SDS011;6220;53.580;9.758;2023-04-25T03:41:41;14.67;;;4.43;;
12312;SDS011;6220;53.580;9.758;2023-04-25T03:44:07;16.47;;;4.93;;
12312;SDS011;6220;53.580;9.758;2023-04-25T03:46:32;16.67;;;4.50;;
12312;SDS011;6220;53.580;9.758;2023-04-25T03:48:57;16.27;;;4.17;;
12312;SDS011;6220;53.580;9.758;2023-04-25T03:51:24;15.30;;;3.67;;
12312;SDS011;6220;53.580;9.758;2023-04-25T03:53:51;14.23;;;4.23;;
12312;SDS011;6220;53.580;9.758;2023-04-25T03:56:16;20.77;;;4.67;;
12312;SDS011;6220;53.580;9.758;2023-04-25T03:58:42;12.43;;;4.20;;
12312;SDS011;6220;53.580;9.758;2023-04-25T04:01:07;12.20;;;4.10;;
12312;SDS011;6220;53.580;9.758;2023-04-25T04:03:33;19.63;;;4.57;;
12312;SDS011;6220;53.580;9.758;2023-04-25T04:06:00;14.57;;;4.17;;
12312;SDS011;6220;53.580;9.758;2023-04-25T04:08:27;18.07;;;3.97;;
12312;SDS011;6220;53.580;9.758;2023-04-25T04:10:53;13.53;;;4.43;;
12312;SDS011;6220;53.580;9.758;2023-04-25T04:13:18;13.60;;;4.60;;
12312;SDS011;6220;53.580;9.758;2023-04-25T04:15:44;11.70;;;3.27;;
12312;SDS011;6220;53.580;9.758;2023-04-25T04:18:09;18.27;;;5.20;;
12312;SDS011;6220;53.580;9.758;2023-04-25T04:20:35;14.77;;;4.60;;
12312;SDS011;6220;53.580;9.758;2023-04-25T04:23:01;16.43;;;4.50;;
12312;SDS011;6220;53.580;9.758;2023-04-25T04:25:28;14.67;;;4.20;;
12312;SDS011;6220;53.580;9.758;2023-04-25T04:27:53;13.10;;;4.40;;
12312;SDS011;6220;53.580;9.758;2023-04-25T04:30:21;18.40;;;4.50;;
12312;SDS011;6220;53.580;9.758;2023-04-25T04:32:49;14.87;;;3.70;;
12312;SDS011;6220;53.580;9.758;2023-04-25T04:35:16;18.33;;;4.63;;
12312;SDS011;6220;53.580;9.758;2023-04-25T04:37:41;15.03;;;3.90;;
12312;SDS011;6220;53.580;9.758;2023-04-25T04:40:07;22.30;;;4.13;;
12312;SDS011;6220;53.580;9.758;2023-04-25T04:42:33;21.50;;;5.13;;
12312;SDS011;6220;53.580;9.758;2023-04-25T04:45:01;20.23;;;4.47;;
12312;SDS011;6220;53.580;9.758;2023-04-25T04:47:26;16.67;;;4.10;;
12312;SDS011;6220;53.580;9.758;2023-04-25T04:49:55;11.50;;;4.20;;
12312;SDS011;6220;53.580;9.758;2023-04-25T04:52:21;13.90;;;3.93;;
12312;SDS011;6220;53.580;9.758;2023-04-25T04:54:47;19.87;;;5.00;;
12312;SDS011;6220;53.580;9.758;2023-04-25T04:57:13;19.03;;;4.70;;
12312;SDS011;6220;53.580;9.758;2023-04-25T04:59:38;15.83;;;4.23;;
12312;SDS011;6220;53.580;9.758;2023-04-25T05:02:03;19.27;;;4.37;;
12312;SDS011;6220;53.580;9.758;2023-04-25T05:04:29;13.90;;;3.70;;
12312;SDS011;6220;53.580;9.758;2023-04-25T05:06:54;17.90;;;4.23;;
12312;SDS011;6220;53.580;9.758;2023-04-25T05:09:21;16.27;;;3.77;;
12312;SDS011;6220;53.580;9.758;2023-04-25T05:11:50;16.70;;;4.40;;
12312;SDS011;6220;53.580;9.758;2023-04-25T05:14:16;10.90;;;4.17;;
12312;SDS011;6220;53.580;9.758;2023-04-25T05:16:42;14.90;;;3.87;;
12312;SDS011;6220;53.580;9.758;2023-04-25T05:19:07;17.10;;;4.03;;
12312;SDS011;6220;53.580;9.758;2023-04-25T05:21:32;16.33;;;4.30;;
12312;SDS011;6220;53.580;9.758;2023-04-25T05:23:58;14.23;;;3.93;;
12312;SDS011;6220;53.580;9.758;2023-04-25T05:26:23;15.03;;;3.83;;
12312;SDS011;6220;53.580;9.758;2023-04-25T05:28:49;16.47;;;4.13;;
12312;SDS011;6220;53.580;9.758;2023-04-25T05:31:15;15.33;;;3.97;;
12312;SDS011;6220;53.580;9.758;2023-04-25T05:33:41;18.00;;;3.90;;
12312;SDS011;6220;53.580;9.758;2023-04-25T05:36:07;18.80;;;3.97;;
12312;SDS011;6220;53.580;9.758;2023-04-25T05:38:34;13.53;;;3.93;;
12312;SDS011;6220;53.580;9.758;2023-04-25T05:40:59;15.07;;;4.23;;
12312;SDS011;6220;53.580;9.758;2023-04-25T05:43:25;9.37;;;3.33;;
12312;SDS011;6220;53.580;9.758;2023-04-25T05:45:50;21.10;;;3.83;;
12312;SDS011;6220;53.580;9.758;2023-04-25T05:48:15;15.97;;;4.97;;
12312;SDS011;6220;53.580;9.758;2023-04-25T05:50:41;9.50;;;3.63;;
12312;SDS011;6220;53.580;9.758;2023-04-25T05:53:06;11.50;;;3.63;;
12312;SDS011;6220;53.580;9.758;2023-04-25T05:55:31;12.50;;;4.37;;
12312;SDS011;6220;53.580;9.758;2023-04-25T05:57:57;17.60;;;3.77;;
12312;SDS011;6220;53.580;9.758;2023-04-25T06:00:22;17.20;;;3.87;;
12312;SDS011;6220;53.580;9.758;2023-04-25T06:02:48;14.37;;;3.70;;
12312;SDS011;6220;53.580;9.758;2023-04-25T06:05:14;15.77;;;3.90;;
12312;SDS011;6220;53.580;9.758;2023-04-25T06:07:39;13.30;;;4.00;;
12312;SDS011;6220;53.580;9.758;2023-04-25T06:10:05;11.83;;;3.50;;
12312;SDS011;6220;53.580;9.758;2023-04-25T06:12:32;13.73;;;3.63;;
12312;SDS011;6220;53.580;9.758;2023-04-25T06:14:58;11.93;;;4.10;;
12312;SDS011;6220;53.580;9.758;2023-04-25T06:17:23;23.53;;;4.00;;
12312;SDS011;6220;53.580;9.758;2023-04-25T06:19:49;8.57;;;3.77;;
12312;SDS011;6220;53.580;9.758;2023-04-25T06:22:14;12.67;;;3.90;;
12312;SDS011;6220;53.580;9.758;2023-04-25T06:24:40;17.60;;;4.37;;
12312;SDS011;6220;53.580;9.758;2023-04-25T06:27:05;13.80;;;3.37;;
12312;SDS011;6220;53.580;9.758;2023-04-25T06:29:30;17.97;;;4.57;;
12312;SDS011;6220;53.580;9.758;2023-04-25T06:31:56;14.50;;;3.87;;
12312;SDS011;6220;53.580;9.758;2023-04-25T06:34:22;18.93;;;4.33;;
12312;SDS011;6220;53.580;9.758;2023-04-25T06:36:48;17.63;;;4.10;;
12312;SDS011;6220;53.580;9.758;2023-04-25T06:39:13;9.83;;;3.40;;
12312;SDS011;6220;53.580;9.758;2023-04-25T06:41:39;14.03;;;3.63;;
12312;SDS011;6220;53.580;9.758;2023-04-25T06:44:05;14.40;;;3.90;;
12312;SDS011;6220;53.580;9.758;2023-04-25T06:46:31;17.50;;;4.17;;
12312;SDS011;6220;53.580;9.758;2023-04-25T06:48:56;14.43;;;3.40;;
12312;SDS011;6220;53.580;9.758;2023-04-25T06:51:21;11.80;;;4.13;;
12312;SDS011;6220;53.580;9.758;2023-04-25T06:53:47;13.27;;;3.70;;
12312;SDS011;6220;53.580;9.758;2023-04-25T06:56:13;13.90;;;3.80;;
12312;SDS011;6220;53.580;9.758;2023-04-25T06:58:39;12.20;;;4.17;;
12312;SDS011;6220;53.580;9.758;2023-04-25T07:01:04;14.73;;;3.27;;
12312;SDS011;6220;53.580;9.758;2023-04-25T07:03:30;10.10;;;3.23;;
12312;SDS011;6220;53.580;9.758;2023-04-25T07:05:55;9.27;;;3.00;;
12312;SDS011;6220;53.580;9.758;2023-04-25T07:08:20;15.00;;;3.47;;
12312;SDS011;6220;53.580;9.758;2023-04-25T07:10:46;14.63;;;4.00;;
12312;SDS011;6220;53.580;9.758;2023-04-25T07:13:11;6.83;;;2.27;;
12312;SDS011;6220;53.580;9.758;2023-04-25T07:15:37;12.50;;;3.20;;
12312;SDS011;6220;53.580;9.758;2023-04-25T07:18:02;13.43;;;2.83;;
12312;SDS011;6220;53.580;9.758;2023-04-25T07:20:27;14.83;;;2.63;;
12312;SDS011;6220;53.580;9.758;2023-04-25T07:22:53;11.63;;;2.90;;
12312;SDS011;6220;53.580;9.758;2023-04-25T07:25:19;12.83;;;2.70;;
12312;SDS011;6220;53.580;9.758;2023-04-25T07:27:45;12.00;;;2.83;;
12312;SDS011;6220;53.580;9.758;2023-04-25T07:30:10;13.13;;;3.53;;
12312;SDS011;6220;53.580;9.758;2023-04-25T07:32:36;11.60;;;2.47;;
12312;SDS011;6220;53.580;9.758;2023-04-25T07:35:01;13.50;;;3.07;;
12312;SDS011;6220;53.580;9.758;2023-04-25T07:37:28;10.37;;;3.23;;
12312;SDS011;6220;53.580;9.758;2023-04-25T07:39:53;13.03;;;3.23;;
12312;SDS011;6220;53.580;9.758;2023-04-25T07:42:19;12.37;;;3.10;;
12312;SDS011;6220;53.580;9.758;2023-04-25T07:44:44;13.70;;;2.80;;
12312;SDS011;6220;53.580;9.758;2023-04-25T07:47:10;12.07;;;2.80;;
12312;SDS011;6220;53.580;9.758;2023-04-25T07:49:38;8.27;;;2.20;;
12312;SDS011;6220;53.580;9.758;2023-04-25T07:52:04;12.23;;;2.97;;
12312;SDS011;6220;53.580;9.758;2023-04-25T07:54:31;16.03;;;2.77;;
12312;SDS011;6220;53.580;9.758;2023-04-25T07:56:56;10.03;;;2.70;;
12312;SDS011;6220;53.580;9.758;2023-04-25T07:59:22;8.10;;;2.50;;
12312;SDS011;6220;53.580;9.758;2023-04-25T08:01:47;9.27;;;2.70;;
12312;SDS011;6220;53.580;9.758;2023-04-25T08:04:13;9.77;;;2.63;;
12312;SDS011;6220;53.580;9.758;2023-04-25T08:06:38;14.50;;;2.83;;
12312;SDS011;6220;53.580;9.758;2023-04-25T08:09:04;13.40;;;3.07;;
12312;SDS011;6220;53.580;9.758;2023-04-25T08:11:34;11.20;;;2.70;;
12312;SDS011;6220;53.580;9.758;2023-04-25T08:14:00;13.00;;;3.00;;
12312;SDS011;6220;53.580;9.758;2023-04-25T08:16:25;9.50;;;2.70;;
12312;SDS011;6220;53.580;9.758;2023-04-25T08:18:50;9.27;;;3.20;;
12312;SDS011;6220;53.580;9.758;2023-04-25T08:21:16;11.07;;;3.00;;
12312;SDS011;6220;53.580;9.758;2023-04-25T08:23:41;5.97;;;2.60;;
12312;SDS011;6220;53.580;9.758;2023-04-25T08:26:07;7.27;;;2.40;;
12312;SDS011;6220;53.580;9.758;2023-04-25T08:28:32;10.13;;;2.70;;
12312;SDS011;6220;53.580;9.758;2023-04-25T08:30:58;8.73;;;2.73;;
12312;SDS011;6220;53.580;9.758;2023-04-25T08:33:23;11.20;;;3.00;;
12312;SDS011;6220;53.580;9.758;2023-04-25T08:35:48;8.97;;;2.90;;
12312;SDS011;6220;53.580;9.758;2023-04-25T08:38:14;10.47;;;3.20;;
12312;SDS011;6220;53.580;9.758;2023-04-25T08:40:39;12.83;;;3.70;;
12312;SDS011;6220;53.580;9.758;2023-04-25T08:43:06;11.63;;;3.20;;
12312;SDS011;6220;53.580;9.758;2023-04-25T08:45:36;14.37;;;2.87;;
12312;SDS011;6220;53.580;9.758;2023-04-25T08:48:12;10.63;;;2.30;;
12312;SDS011;6220;53.580;9.758;2023-04-25T08:50:45;9.60;;;2.10;;
12312;SDS011;6220;53.580;9.758;2023-04-25T08:53:15;9.17;;;2.37;;
12312;SDS011;6220;53.580;9.758;2023-04-25T08:55:43;7.10;;;2.30;;
12312;SDS011;6220;53.580;9.758;2023-04-25T08:58:09;4.10;;;1.67;;
12312;SDS011;6220;53.580;9.758;2023-04-25T09:00:37;5.30;;;1.83;;
12312;SDS011;6220;53.580;9.758;2023-04-25T09:03:05;5.67;;;1.97;;
12312;SDS011;6220;53.580;9.758;2023-04-25T09:05:33;6.90;;;2.00;;
12312;SDS011;6220;53.580;9.758;2023-04-25T09:08:00;7.97;;;2.30;;
12312;SDS011;6220;53.580;9.758;2023-04-25T09:10:26;10.90;;;2.40;;
12312;SDS011;6220;53.580;9.758;2023-04-25T09:15:49;8.80;;;2.33;;
12312;SDS011;6220;53.580;9.758;2023-04-25T09:18:37;7.63;;;2.23;;
12312;SDS011;6220;53.580;9.758;2023-04-25T09:21:05;13.13;;;3.20;;
12312;SDS011;6220;53.580;9.758;2023-04-25T09:23:38;6.37;;;2.13;;
12312;SDS011;6220;53.580;9.758;2023-04-25T09:26:06;9.03;;;3.13;;
12312;SDS011;6220;53.580;9.758;2023-04-25T09:28:32;12.93;;;2.60;;
12312;SDS011;6220;53.580;9.758;2023-04-25T09:30:57;7.60;;;2.53;;
12312;SDS011;6220;53.580;9.758;2023-04-25T09:33:30;7.10;;;1.90;;
12312;SDS011;6220;53.580;9.758;2023-04-25T09:36:08;8.60;;;2.33;;
12312;SDS011;6220;53.580;9.758;2023-04-25T09:38:44;8.20;;;1.93;;
12312;SDS011;6220;53.580;9.758;2023-04-25T09:41:11;8.47;;;2.10;;
12312;SDS011;6220;53.580;9.758;2023-04-25T09:43:37;9.47;;;2.40;;
12312;SDS011;6220;53.580;9.758;2023-04-25T09:46:10;8.60;;;2.93;;
12312;SDS011;6220;53.580;9.758;2023-04-25T09:48:36;9.23;;;2.60;;
12312;SDS011;6220;53.580;9.758;2023-04-25T09:51:09;7.50;;;2.13;;
12312;SDS011;6220;53.580;9.758;2023-04-25T09:53:37;10.80;;;2.50;;
12312;SDS011;6220;53.580;9.758;2023-04-25T09:56:04;6.07;;;2.10;;
12312;SDS011;6220;53.580;9.758;2023-04-25T09:58:31;8.40;;;2.40;;
12312;SDS011;6220;53.580;9.758;2023-04-25T10:01:00;10.40;;;2.80;;
12312;SDS011;6220;53.580;9.758;2023-04-25T10:03:30;8.03;;;2.33;;
12312;SDS011;6220;53.580;9.758;2023-04-25T10:05:58;4.63;;;1.97;;
12312;SDS011;6220;53.580;9.758;2023-04-25T10:08:25;6.80;;;2.30;;
12312;SDS011;6220;53.580;9.758;2023-04-25T10:10:51;3.30;;;1.70;;
12312;SDS011;6220;53.580;9.758;2023-04-25T10:13:17;6.33;;;2.33;;
12312;SDS011;6220;53.580;9.758;2023-04-25T10:15:43;8.37;;;1.90;;
12312;SDS011;6220;53.580;9.758;2023-04-25T10:18:09;7.00;;;1.90;;
12312;SDS011;6220;53.580;9.758;2023-04-25T10:20:35;7.27;;;2.50;;
12312;SDS011;6220;53.580;9.758;2023-04-25T10:23:23;8.03;;;2.37;;
12312;SDS011;6220;53.580;9.758;2023-04-25T10:25:47;7.90;;;2.37;;
12312;SDS011;6220;53.580;9.758;2023-04-25T10:28:15;9.93;;;2.50;;
12312;SDS011;6220;53.580;9.758;2023-04-25T10:30:59;12.00;;;2.57;;
12312;SDS011;6220;53.580;9.758;2023-04-25T10:33:40;5.53;;;2.07;;
12312;SDS011;6220;53.580;9.758;2023-04-25T10:36:17;9.77;;;2.63;;
12312;SDS011;6220;53.580;9.758;2023-04-25T10:38:44;8.03;;;2.37;;
12312;SDS011;6220;53.580;9.758;2023-04-25T10:41:11;6.67;;;2.20;;
12312;SDS011;6220;53.580;9.758;2023-04-25T10:43:45;7.43;;;2.03;;
12312;SDS011;6220;53.580;9.758;2023-04-25T10:51:29;8.23;;;2.53;;
12312;SDS011;6220;53.580;9.758;2023-04-25T10:56:29;8.83;;;2.90;;
12312;SDS011;6220;53.580;9.758;2023-04-25T11:01:37;7.50;;;2.20;;
12312;SDS011;6220;53.580;9.758;2023-04-25T11:04:06;9.30;;;2.43;;
12312;SDS011;6220;53.580;9.758;2023-04-25T11:09:18;7.17;;;2.10;;
12312;SDS011;6220;53.580;9.758;2023-04-25T11:11:53;6.27;;;2.27;;
12312;SDS011;6220;53.580;9.758;2023-04-25T11:14:19;6.60;;;2.17;;
12312;SDS011;6220;53.580;9.758;2023-04-25T11:16:52;7.47;;;2.37;;
12312;SDS011;6220;53.580;9.758;2023-04-25T11:19:19;7.07;;;2.33;;
12312;SDS011;6220;53.580;9.758;2023-04-25T11:21:45;8.83;;;2.37;;
12312;SDS011;6220;53.580;9.758;2023-04-25T11:24:10;7.53;;;2.07;;
12312;SDS011;6220;53.580;9.758;2023-04-25T11:26:36;4.90;;;1.73;;
12312;SDS011;6220;53.580;9.758;2023-04-25T11:29:02;4.07;;;1.77;;
12312;SDS011;6220;53.580;9.758;2023-04-25T11:31:28;3.93;;;1.23;;
12312;SDS011;6220;53.580;9.758;2023-04-25T11:33:54;3.63;;;1.20;;
12312;SDS011;6220;53.580;9.758;2023-04-25T11:36:25;3.23;;;1.60;;
12312;SDS011;6220;53.580;9.758;2023-04-25T11:38:51;4.63;;;1.40;;
12312;SDS011;6220;53.580;9.758;2023-04-25T11:41:17;3.80;;;1.43;;
12312;SDS011;6220;53.580;9.758;2023-04-25T11:43:43;8.70;;;2.27;;
12312;SDS011;6220;53.580;9.758;2023-04-25T11:46:10;6.17;;;2.37;;
12312;SDS011;6220;53.580;9.758;2023-04-25T11:48:40;8.07;;;2.00;;
12312;SDS011;6220;53.580;9.758;2023-04-25T11:51:06;7.53;;;2.10;;
12312;SDS011;6220;53.580;9.758;2023-04-25T11:53:31;7.83;;;2.10;;
12312;SDS011;6220;53.580;9.758;2023-04-25T11:55:57;12.33;;;2.50;;
12312;SDS011;6220;53.580;9.758;2023-04-25T11:58:22;5.30;;;1.80;;
12312;SDS011;6220;53.580;9.758;2023-04-25T12:00:48;8.60;;;1.83;;
12312;SDS011;6220;53.580;9.758;2023-04-25T12:03:13;5.60;;;2.13;;
12312;SDS011;6220;53.580;9.758;2023-04-25T12:05:39;6.63;;;1.90;;
12312;SDS011;6220;53.580;9.758;2023-04-25T12:08:14;4.63;;;2.10;;
12312;SDS011;6220;53.580;9.758;2023-04-25T12:10:41;4.93;;;1.53;;
12312;SDS011;6220;53.580;9.758;2023-04-25T12:13:20;5.70;;;1.90;;
12312;SDS011;6220;53.580;9.758;2023-04-25T12:15:49;4.87;;;2.20;;
12312;SDS011;6220;53.580;9.758;2023-04-25T12:18:18;7.17;;;2.23;;
12312;SDS011;6220;53.580;9.758;2023-04-25T12:20:44;6.90;;;2.23;;
12312;SDS011;6220;53.580;9.758;2023-04-25T12:23:10;15.07;;;2.77;;
12312;SDS011;6220;53.580;9.758;2023-04-25T12:25:56;6.23;;;2.43;;
12312;SDS011;6220;53.580;9.758;2023-04-25T12:28:23;4.97;;;1.77;;
12312;SDS011;6220;53.580;9.758;2023-04-25T12:33:24;6.40;;;1.80;;
12312;SDS011;6220;53.580;9.758;2023-04-25T12:35:52;6.87;;;2.00;;
12312;SDS011;6220;53.580;9.758;2023-04-25T12:38:24;9.80;;;2.07;;
12312;SDS011;6220;53.580;9.758;2023-04-25T12:40:51;7.40;;;2.10;;
12312;SDS011;6220;53.580;9.758;2023-04-25T12:43:17;6.60;;;2.53;;
12312;SDS011;6220;53.580;9.758;2023-04-25T12:45:43;7.00;;;2.20;;
12312;SDS011;6220;53.580;9.758;2023-04-25T12:48:09;6.23;;;2.17;;
12312;SDS011;6220;53.580;9.758;2023-04-25T12:50:36;7.30;;;2.43;;
12312;SDS011;6220;53.580;9.758;2023-04-25T12:53:01;9.30;;;2.63;;
12312;SDS011;6220;53.580;9.758;2023-04-25T12:55:26;9.03;;;2.40;;
12312;SDS011;6220;53.580;9.758;2023-04-25T12:57:52;9.97;;;2.07;;
12312;SDS011;6220;53.580;9.758;2023-04-25T13:00:17;7.27;;;3.03;;
12312;SDS011;6220;53.580;9.758;2023-04-25T13:02:44;9.70;;;2.73;;
12312;SDS011;6220;53.580;9.758;2023-04-25T13:05:11;11.00;;;2.57;;
12312;SDS011;6220;53.580;9.758;2023-04-25T13:07:37;6.83;;;2.00;;
12312;SDS011;6220;53.580;9.758;2023-04-25T13:10:03;5.93;;;2.23;;
12312;SDS011;6220;53.580;9.758;2023-04-25T13:12:30;5.97;;;1.90;;
12312;SDS011;6220;53.580;9.758;2023-04-25T13:14:57;5.43;;;1.90;;
12312;SDS011;6220;53.580;9.758;2023-04-25T13:17:23;4.53;;;2.00;;
12312;SDS011;6220;53.580;9.758;2023-04-25T13:19:49;7.53;;;2.13;;
12312;SDS011;6220;53.580;9.758;2023-04-25T13:22:14;4.90;;;2.23;;
12312;SDS011;6220;53.580;9.758;2023-04-25T13:24:42;5.13;;;1.93;;
12312;SDS011;6220;53.580;9.758;2023-04-25T13:27:08;6.63;;;2.00;;
12312;SDS011;6220;53.580;9.758;2023-04-25T13:29:35;6.63;;;2.03;;
12312;SDS011;6220;53.580;9.758;2023-04-25T13:32:03;4.53;;;1.77;;
12312;SDS011;6220;53.580;9.758;2023-04-25T13:34:28;4.63;;;2.10;;
12312;SDS011;6220;53.580;9.758;2023-04-25T13:36:55;6.27;;;2.53;;
12312;SDS011;6220;53.580;9.758;2023-04-25T13:39:21;7.37;;;1.60;;
12312;SDS011;6220;53.580;9.758;2023-04-25T13:41:47;6.90;;;2.40;;
12312;SDS011;6220;53.580;9.758;2023-04-25T13:44:13;4.50;;;2.00;;
12312;SDS011;6220;53.580;9.758;2023-04-25T13:46:38;4.37;;;1.90;;
12312;SDS011;6220;53.580;9.758;2023-04-25T13:49:04;7.37;;;2.10;;
12312;SDS011;6220;53.580;9.758;2023-04-25T13:51:29;7.33;;;2.10;;
12312;SDS011;6220;53.580;9.758;2023-04-25T13:53:57;12.63;;;3.63;;
12312;SDS011;6220;53.580;9.758;2023-04-25T13:56:22;8.70;;;2.70;;
12312;SDS011;6220;53.580;9.758;2023-04-25T13:58:48;15.10;;;2.40;;
12312;SDS011;6220;53.580;9.758;2023-04-25T14:01:15;7.97;;;2.43;;
12312;SDS011;6220;53.580;9.758;2023-04-25T14:03:40;10.60;;;2.67;;
12312;SDS011;6220;53.580;9.758;2023-04-25T14:06:06;7.67;;;2.40;;
12312;SDS011;6220;53.580;9.758;2023-04-25T14:08:31;8.77;;;2.30;;
12312;SDS011;6220;53.580;9.758;2023-04-25T14:10:57;6.90;;;2.37;;
12312;SDS011;6220;53.580;9.758;2023-04-25T14:13:22;7.90;;;2.43;;
12312;SDS011;6220;53.580;9.758;2023-04-25T14:15:48;10.87;;;2.40;;
12312;SDS011;6220;53.580;9.758;2023-04-25T14:18:15;11.43;;;2.90;;
12312;SDS011;6220;53.580;9.758;2023-04-25T14:20:40;8.10;;;2.27;;
12312;SDS011;6220;53.580;9.758;2023-04-25T14:23:06;7.20;;;2.40;;
12312;SDS011;6220;53.580;9.758;2023-04-25T14:25:32;9.20;;;2.60;;
12312;SDS011;6220;53.580;9.758;2023-04-25T14:27:58;6.40;;;2.17;;
12312;SDS011;6220;53.580;9.758;2023-04-25T14:30:23;12.73;;;2.63;;
12312;SDS011;6220;53.580;9.758;2023-04-25T14:32:49;6.80;;;2.00;;
12312;SDS011;6220;53.580;9.758;2023-04-25T14:35:16;6.13;;;2.20;;
12312;SDS011;6220;53.580;9.758;2023-04-25T14:37:42;6.90;;;2.30;;
12312;SDS011;6220;53.580;9.758;2023-04-25T14:40:07;6.23;;;2.40;;
12312;SDS011;6220;53.580;9.758;2023-04-25T14:42:37;8.60;;;2.40;;
12312;SDS011;6220;53.580;9.758;2023-04-25T14:45:04;8.00;;;2.20;;
12312;SDS011;6220;53.580;9.758;2023-04-25T14:47:31;9.13;;;2.87;;
12312;SDS011;6220;53.580;9.758;2023-04-25T14:49:56;8.20;;;2.10;;
12312;SDS011;6220;53.580;9.758;2023-04-25T14:52:23;5.73;;;2.00;;
12312;SDS011;6220;53.580;9.758;2023-04-25T14:54:48;9.60;;;1.90;;
12312;SDS011;6220;53.580;9.758;2023-04-25T14:57:15;10.93;;;2.87;;
12312;SDS011;6220;53.580;9.758;2023-04-25T14:59:40;8.73;;;2.33;;
12312;SDS011;6220;53.580;9.758;2023-04-25T15:02:06;6.43;;;2.20;;
12312;SDS011;6220;53.580;9.758;2023-04-25T15:04:31;9.63;;;2.50;;
12312;SDS011;6220;53.580;9.758;2023-04-25T15:06:58;9.10;;;2.70;;